Time;durP1;ratioP1;P1;durP2;ratioP2;P2;SDS_P1;SDS_P2;PMS_P1;PMS_P2;Temp;Humidity;BMP_temperature;BMP_pressure;BME280_temperature;BME280_humidity;BME280_pressure;Samples;Min_cycle;Max_cycle;Signal;HPM_P1;HPM_P2
2022/05/20 00:01:58;;;;;;;2.17;1.90;;;24.10;99.90;;;;;;4192095;28;20264;-73
2022/05/20 00:04:00;;;;;;;3.63;2.67;;;24.10;99.90;;;;;;4192154;28;20230;-74
2022/05/20 00:06:04;;;;;;;3.90;1.90;;;24.10;99.90;;;;;;4193022;28;20636;-74
2022/05/20 00:08:08;;;;;;;2.63;2.30;;;24.10;99.90;;;;;;4192278;28;20238;-73
2022/05/20 00:10:11;;;;;;;3.88;2.53;;;24.10;99.90;;;;;;4192337;28;20268;-74
2022/05/20 00:12:13;;;;;;;5.75;2.53;;;24.10;99.90;;;;;;4191876;28;20219;-73
2022/05/20 00:14:16;;;;;;;4.95;2.58;;;24.10;99.90;;;;;;4191995;28;20244;-73
2022/05/20 00:16:18;;;;;;;7.43;2.35;;;24.10;99.90;;;;;;4192436;28;20223;-73
2022/05/20 00:18:21;;;;;;;3.05;2.10;;;24.10;99.90;;;;;;4192803;28;20666;-73
2022/05/20 00:20:25;;;;;;;2.50;2.30;;;24.10;99.90;;;;;;4192288;28;20289;-73
2022/05/20 00:22:30;;;;;;;3.60;2.20;;;24.10;99.90;;;;;;4192585;28;20269;-73
2022/05/20 00:24:33;;;;;;;4.40;2.30;;;24.10;99.90;;;;;;4192084;28;20530;-73
2022/05/20 00:26:34;;;;;;;3.35;2.58;;;24.10;99.90;;;;;;4192057;28;20272;-73
2022/05/20 00:28:37;;;;;;;4.00;2.40;;;24.00;99.90;;;;;;4191935;28;20273;-73
2022/05/20 00:30:40;;;;;;;4.72;2.60;;;24.10;99.90;;;;;;4192335;28;20223;-73
2022/05/20 00:32:42;;;;;;;3.72;2.28;;;24.10;99.90;;;;;;4192109;28;21931;-73
2022/05/20 00:34:44;;;;;;;3.97;2.63;;;24.00;99.90;;;;;;4192301;28;20628;-73
2022/05/20 00:36:47;;;;;;;4.45;2.67;;;24.00;99.90;;;;;;4192347;28;20260;-73
2022/05/20 00:38:51;;;;;;;3.05;2.40;;;24.10;99.90;;;;;;4192061;28;20219;-73
2022/05/20 00:40:55;;;;;;;4.10;2.63;;;24.00;99.90;;;;;;4195446;28;20602;-74
2022/05/20 00:43:23;;;;;;;3.15;2.40;;;24.00;99.90;;;;;;4194848;28;20219;-73
2022/05/20 00:45:26;;;;;;;4.22;2.60;;;24.00;99.90;;;;;;4192695;28;20280;-74
2022/05/20 00:47:28;;;;;;;3.10;2.53;;;24.10;99.90;;;;;;4195227;28;20215;-73
2022/05/20 00:49:31;;;;;;;2.75;2.40;;;24.00;99.90;;;;;;4195218;28;20227;-73
2022/05/20 00:51:37;;;;;;;3.92;2.10;;;24.00;99.90;;;;;;4195532;28;20280;-73
2022/05/20 00:53:44;;;;;;;3.80;2.63;;;24.00;99.90;;;;;;4195342;28;20215;-74
2022/05/20 00:55:48;;;;;;;2.60;2.40;;;24.00;99.90;;;;;;4194934;28;20297;-73
2022/05/20 00:57:55;;;;;;;3.22;2.08;;;24.00;99.90;;;;;;4195547;28;20659;-73
2022/05/20 01:00:02;;;;;;;3.85;2.53;;;24.00;99.90;;;;;;4194626;28;20239;-74
2022/05/20 01:02:09;;;;;;;3.05;2.50;;;23.90;99.90;;;;;;4194671;28;21034;-74
2022/05/20 01:04:11;;;;;;;3.47;1.92;;;24.00;99.90;;;;;;4194070;28;20261;-74
2022/05/20 01:06:13;;;;;;;3.25;2.50;;;24.00;99.90;;;;;;4195280;28;20276;-73
2022/05/20 01:08:26;;;;;;;3.47;2.30;;;23.90;99.90;;;;;;4194421;28;20243;-74
2022/05/20 01:10:29;;;;;;;3.35;2.13;;;23.90;99.90;;;;;;4191461;28;21058;-73
2022/05/20 01:12:32;;;;;;;5.38;3.10;;;23.90;99.90;;;;;;4195115;28;20219;-73
2022/05/20 01:14:35;;;;;;;2.83;2.55;;;23.90;99.90;;;;;;4194828;28;20278;-74
2022/05/20 01:16:38;;;;;;;4.32;2.20;;;23.90;99.90;;;;;;4194737;28;20272;-74
2022/05/20 01:18:44;;;;;;;3.58;2.33;;;23.90;99.90;;;;;;4193905;28;20211;-73
2022/05/20 01:20:50;;;;;;;2.20;2.00;;;23.90;99.90;;;;;;4192231;28;20239;-74
2022/05/20 01:23:05;;;;;;;3.10;2.35;;;23.90;99.90;;;;;;4189630;28;20260;-74
2022/05/20 01:25:10;;;;;;;2.80;2.25;;;23.90;99.90;;;;;;4192558;28;20215;-73
2022/05/20 01:27:13;;;;;;;2.88;2.20;;;23.90;99.90;;;;;;4195169;28;20215;-73
2022/05/20 01:29:15;;;;;;;4.70;2.53;;;23.90;99.90;;;;;;4194564;28;20296;-73
2022/05/20 01:31:18;;;;;;;2.40;2.20;;;23.90;99.90;;;;;;4194440;28;20668;-74
2022/05/20 01:33:24;;;;;;;3.75;2.30;;;23.80;99.90;;;;;;4194027;28;20615;-73
2022/05/20 01:35:32;;;;;;;2.58;2.13;;;23.90;99.90;;;;;;4194088;28;20292;-74
2022/05/20 01:37:34;;;;;;;3.22;2.50;;;23.90;99.90;;;;;;4193887;28;20210;-73
2022/05/20 01:39:38;;;;;;;3.47;2.22;;;23.90;99.90;;;;;;4193189;28;20223;-73
2022/05/20 01:41:50;;;;;;;5.22;2.72;;;23.80;99.90;;;;;;4193999;28;20608;-73
2022/05/20 01:44:08;;;;;;;2.42;2.22;;;23.80;99.90;;;;;;4193224;28;20276;-74
2022/05/20 01:46:19;;;;;;;3.25;2.20;;;23.80;99.90;;;;;;4194023;28;20223;-74
2022/05/20 01:48:27;;;;;;;3.13;2.35;;;23.80;99.90;;;;;;4194361;28;20683;-73
2022/05/20 01:50:37;;;;;;;3.03;2.33;;;23.80;99.90;;;;;;4193082;28;20264;-74
2022/05/20 01:52:45;;;;;;;2.58;1.85;;;23.80;99.90;;;;;;4193290;28;20268;-73
2022/05/20 01:54:59;;;;;;;3.63;2.40;;;23.80;99.90;;;;;;4193095;28;20660;-73
2022/05/20 01:57:09;;;;;;;3.10;2.45;;;23.80;99.90;;;;;;4194436;28;21007;-73
2022/05/20 01:59:17;;;;;;;3.10;2.30;;;23.80;99.90;;;;;;4193947;28;20633;-73
2022/05/20 02:01:24;;;;;;;4.05;2.72;;;23.80;99.90;;;;;;4193729;28;20241;-73
2022/05/20 02:03:35;;;;;;;2.20;2.00;;;23.80;99.90;;;;;;4193283;28;20639;-73
2022/05/20 02:05:41;;;;;;;3.80;2.53;;;23.80;99.90;;;;;;4193261;28;20732;-73
2022/05/20 02:07:48;;;;;;;4.43;2.17;;;23.80;99.90;;;;;;4193569;28;20292;-73
2022/05/20 02:09:57;;;;;;;3.95;2.60;;;23.80;99.90;;;;;;4193372;28;20227;-73
2022/05/20 02:12:00;;;;;;;4.32;2.78;;;23.80;99.90;;;;;;4193261;28;20280;-73
2022/05/20 02:14:07;;;;;;;3.22;2.45;;;23.80;99.90;;;;;;4193472;28;20284;-74
2022/05/20 02:16:15;;;;;;;4.82;2.20;;;23.80;99.90;;;;;;4192941;28;20773;-73
2022/05/20 02:18:22;;;;;;;2.75;2.47;;;23.80;99.90;;;;;;4192150;28;20298;-74
2022/05/20 02:20:30;;;;;;;3.75;2.45;;;23.80;99.90;;;;;;4192920;28;20289;-75
2022/05/20 02:22:36;;;;;;;5.38;2.53;;;23.80;99.90;;;;;;4193800;28;20295;-75
2022/05/20 02:24:40;;;;;;;3.42;2.30;;;23.80;99.90;;;;;;4193483;28;20219;-74
2022/05/20 02:26:49;;;;;;;4.00;3.00;;;23.80;99.90;;;;;;4192959;28;20248;-75
2022/05/20 02:28:56;;;;;;;3.78;2.20;;;23.80;99.90;;;;;;4193690;28;20267;-74
2022/05/20 02:30:59;;;;;;;2.50;2.30;;;23.80;99.90;;;;;;4193059;28;20279;-74
2022/05/20 02:33:07;;;;;;;2.58;2.38;;;23.80;99.90;;;;;;4193133;28;20265;-75
2022/05/20 02:35:09;;;;;;;4.20;2.45;;;23.80;99.90;;;;;;4194115;28;20260;-75
2022/05/20 02:37:23;;;;;;;2.75;2.55;;;23.70;99.90;;;;;;4192014;28;20264;-74
2022/05/20 02:39:26;;;;;;;2.92;2.40;;;23.70;99.90;;;;;;4193495;28;20223;-74
2022/05/20 02:41:28;;;;;;;3.15;2.50;;;23.70;99.90;;;;;;4193582;28;20288;-74
2022/05/20 02:43:32;;;;;;;3.28;2.60;;;23.70;99.90;;;;;;4193525;28;20678;-74
2022/05/20 02:45:35;;;;;;;4.72;2.63;;;23.70;99.90;;;;;;4193191;28;20219;-74
2022/05/20 02:47:37;;;;;;;3.17;2.10;;;23.70;99.90;;;;;;4193022;28;20249;-75
2022/05/20 02:49:40;;;;;;;4.38;2.80;;;23.70;99.90;;;;;;4193772;28;20211;-75
2022/05/20 02:51:42;;;;;;;4.15;2.67;;;23.70;99.90;;;;;;4192993;28;20215;-74
2022/05/20 02:53:47;;;;;;;3.22;2.80;;;23.70;99.90;;;;;;4193410;28;20249;-74
2022/05/20 02:55:49;;;;;;;3.38;2.70;;;23.70;99.90;;;;;;4193832;28;20288;-75
2022/05/20 02:57:51;;;;;;;4.70;2.78;;;23.70;99.90;;;;;;4193057;28;20227;-74
2022/05/20 03:04:35;;;;;;;2.97;2.42;;;23.70;99.90;;;;;;4193923;28;20215;-74
2022/05/20 03:06:37;;;;;;;3.65;2.53;;;23.70;99.90;;;;;;4193146;28;20269;-74
2022/05/20 03:08:41;;;;;;;3.15;2.17;;;23.70;99.90;;;;;;4192771;28;20234;-74
2022/05/20 03:10:44;;;;;;;3.45;2.80;;;23.60;99.90;;;;;;4187003;28;20364;-74
2022/05/20 03:12:46;;;;;;;3.65;2.83;;;23.70;99.90;;;;;;4192729;28;20211;-74
2022/05/20 03:14:49;;;;;;;4.05;2.83;;;23.70;99.90;;;;;;4192649;28;20279;-74
2022/05/20 03:16:52;;;;;;;3.10;2.70;;;23.70;99.90;;;;;;4192514;28;20223;-74
2022/05/20 03:18:55;;;;;;;2.97;2.38;;;23.70;99.90;;;;;;4192746;28;20277;-74
2022/05/20 03:20:57;;;;;;;4.43;3.33;;;23.70;99.90;;;;;;4192259;28;20292;-74
2022/05/20 03:23:00;;;;;;;4.40;3.00;;;23.70;99.90;;;;;;4192463;28;20211;-75
2022/05/20 03:25:04;;;;;;;2.75;2.30;;;23.70;99.90;;;;;;4191959;28;20262;-75
2022/05/20 03:27:06;;;;;;;2.50;2.20;;;23.70;99.90;;;;;;4192215;28;20671;-74
2022/05/20 03:29:09;;;;;;;4.63;2.88;;;23.60;99.90;;;;;;4192685;28;20272;-75
2022/05/20 03:31:12;;;;;;;2.97;2.47;;;23.70;99.90;;;;;;4192028;28;20281;-74
2022/05/20 03:33:15;;;;;;;4.63;2.92;;;23.60;99.90;;;;;;4192489;28;20211;-74
2022/05/20 03:35:18;;;;;;;3.72;2.83;;;23.70;99.90;;;;;;4192042;28;20222;-75
2022/05/20 03:37:20;;;;;;;4.22;2.38;;;23.70;99.90;;;;;;4191439;28;20269;-74
2022/05/20 03:39:24;;;;;;;2.90;2.60;;;23.70;99.90;;;;;;4191882;28;20223;-74
2022/05/20 03:41:27;;;;;;;2.53;2.28;;;23.70;99.90;;;;;;4191578;28;20288;-74
2022/05/20 03:43:30;;;;;;;3.30;2.63;;;23.70;99.90;;;;;;4191458;28;20216;-75
2022/05/20 03:45:32;;;;;;;3.25;2.40;;;23.70;99.90;;;;;;4191435;28;20215;-74
2022/05/20 03:47:34;;;;;;;3.47;2.47;;;23.70;99.90;;;;;;4192087;28;20219;-75
2022/05/20 03:49:38;;;;;;;4.00;2.97;;;23.60;99.90;;;;;;4192522;28;20621;-74
2022/05/20 03:51:41;;;;;;;4.90;2.88;;;23.60;99.90;;;;;;4191601;28;20215;-74
2022/05/20 03:53:44;;;;;;;3.70;2.45;;;23.60;99.90;;;;;;4191867;28;20249;-74
2022/05/20 03:55:46;;;;;;;3.88;2.67;;;23.60;99.90;;;;;;4191369;28;20265;-74
2022/05/20 03:57:48;;;;;;;6.15;2.97;;;23.70;99.90;;;;;;4192143;28;20380;-74
2022/05/20 03:59:50;;;;;;;3.65;2.50;;;23.70;99.90;;;;;;4191832;28;20254;-74
2022/05/20 04:01:58;;;;;;;3.55;2.40;;;23.70;99.90;;;;;;4191068;28;20251;-74
2022/05/20 04:04:00;;;;;;;3.95;2.90;;;23.60;99.90;;;;;;4191890;28;20215;-74
2022/05/20 04:06:04;;;;;;;2.95;2.53;;;23.60;99.90;;;;;;4191172;28;20235;-74
2022/05/20 04:08:07;;;;;;;2.83;2.42;;;23.70;99.90;;;;;;4191142;28;20242;-74
2022/05/20 04:10:10;;;;;;;3.42;2.67;;;23.60;99.90;;;;;;4190851;28;20664;-75
2022/05/20 04:12:21;;;;;;;3.22;2.65;;;23.60;99.90;;;;;;4191605;28;20633;-74
2022/05/20 04:14:24;;;;;;;3.63;2.92;;;23.60;99.90;;;;;;4192880;28;20449;-75
2022/05/20 04:16:27;;;;;;;4.45;2.65;;;23.60;99.90;;;;;;4194743;28;20219;-75
2022/05/20 04:18:29;;;;;;;3.22;2.58;;;23.60;99.90;;;;;;4194991;28;20219;-74
2022/05/20 04:20:33;;;;;;;3.28;2.58;;;23.60;99.90;;;;;;4195179;28;20223;-74
2022/05/20 04:22:40;;;;;;;3.33;2.83;;;23.60;99.90;;;;;;4194723;28;20384;-74
2022/05/20 04:24:42;;;;;;;3.13;2.38;;;23.60;99.90;;;;;;4194913;28;20215;-74
2022/05/20 04:26:44;;;;;;;2.70;2.42;;;23.60;99.90;;;;;;4195336;28;20234;-74
2022/05/20 04:28:47;;;;;;;3.58;2.72;;;23.60;99.90;;;;;;4194474;28;20219;-74
2022/05/20 04:30:50;;;;;;;3.17;2.80;;;23.60;99.90;;;;;;4195337;28;20215;-74
2022/05/20 04:32:53;;;;;;;3.25;2.90;;;23.70;99.90;;;;;;4194785;28;20210;-75
2022/05/20 04:34:55;;;;;;;3.00;2.55;;;23.70;99.90;;;;;;4195084;28;20261;-74
2022/05/20 04:36:57;;;;;;;2.95;2.40;;;23.60;99.90;;;;;;4195857;28;20920;-75
2022/05/20 04:39:01;;;;;;;2.85;2.65;;;23.60;99.90;;;;;;4195124;28;20241;-75
2022/05/20 04:48:05;;;;;;;4.18;2.80;;;23.60;99.90;;;;;;4152730;28;20257;-75
2022/05/20 04:50:08;;;;;;;3.70;2.90;;;23.60;99.90;;;;;;4194127;28;20272;-74
2022/05/20 04:52:11;;;;;;;3.05;2.40;;;23.60;99.90;;;;;;4193051;28;20271;-74
2022/05/20 04:56:34;;;;;;;2.97;2.67;;;23.60;99.90;;;;;;4195773;28;20252;-74
2022/05/20 04:58:37;;;;;;;3.72;2.72;;;23.60;99.90;;;;;;4191793;28;20364;-74
2022/05/20 05:00:39;;;;;;;4.30;3.10;;;23.60;99.90;;;;;;4193859;28;20227;-74
2022/05/20 05:02:41;;;;;;;3.83;2.72;;;23.60;99.90;;;;;;4193423;28;20231;-74
2022/05/20 05:04:44;;;;;;;3.45;2.78;;;23.60;99.90;;;;;;4194753;28;20215;-75
2022/05/20 05:06:46;;;;;;;4.97;2.63;;;23.60;99.90;;;;;;4192416;28;20600;-75
2022/05/20 05:08:49;;;;;;;4.53;2.83;;;23.60;99.90;;;;;;4193316;28;20239;-75
2022/05/20 05:10:53;;;;;;;3.53;2.92;;;23.60;99.90;;;;;;4194821;28;20223;-75
2022/05/20 05:12:55;;;;;;;3.17;2.88;;;23.60;99.90;;;;;;4194394;28;20219;-74
2022/05/20 05:14:58;;;;;;;4.22;3.00;;;23.70;99.90;;;;;;4194471;28;20226;-74
2022/05/20 05:17:00;;;;;;;3.90;2.75;;;23.70;99.90;;;;;;4193942;28;20620;-74
2022/05/20 05:19:02;;;;;;;3.97;2.72;;;23.70;99.90;;;;;;4193306;28;20211;-74
2022/05/20 05:21:05;;;;;;;4.07;2.90;;;23.70;99.90;;;;;;4195092;28;20664;-75
2022/05/20 05:23:08;;;;;;;3.25;2.60;;;23.70;99.90;;;;;;4194493;28;20281;-75
2022/05/20 05:25:12;;;;;;;3.28;2.80;;;23.70;99.90;;;;;;4193864;28;20272;-74
2022/05/20 05:27:15;;;;;;;3.70;2.60;;;23.70;99.90;;;;;;4194162;28;20616;-75
2022/05/20 05:29:17;;;;;;;4.28;2.88;;;23.70;99.90;;;;;;4191948;28;20219;-75
2022/05/20 05:31:20;;;;;;;3.65;3.25;;;23.70;99.90;;;;;;4192665;28;20344;-75
2022/05/20 05:33:22;;;;;;;3.63;3.10;;;23.70;99.90;;;;;;4193502;28;20253;-74
2022/05/20 05:35:26;;;;;;;3.75;2.80;;;23.70;99.90;;;;;;4194605;28;20222;-75
2022/05/20 05:37:29;;;;;;;3.80;2.90;;;23.70;99.90;;;;;;4193753;28;20223;-74
2022/05/20 05:39:32;;;;;;;4.28;3.20;;;23.70;99.90;;;;;;4193765;28;20262;-74
2022/05/20 05:41:34;;;;;;;2.90;2.60;;;23.70;99.90;;;;;;4193316;28;20219;-74
2022/05/20 05:43:39;;;;;;;4.10;2.70;;;23.80;99.90;;;;;;4193654;28;20218;-75
2022/05/20 05:45:41;;;;;;;3.53;2.70;;;23.70;99.90;;;;;;4193550;28;20219;-75
2022/05/20 05:47:45;;;;;;;4.28;2.80;;;23.80;99.90;;;;;;4193379;28;20253;-74
2022/05/20 05:49:47;;;;;;;3.78;2.75;;;23.70;99.90;;;;;;4193272;28;20277;-75
2022/05/20 05:51:49;;;;;;;4.03;2.85;;;23.80;99.90;;;;;;4193867;28;20264;-74
2022/05/20 05:53:52;;;;;;;2.80;2.40;;;23.70;99.90;;;;;;4193229;28;20276;-74
2022/05/20 05:55:56;;;;;;;3.58;2.83;;;23.80;99.90;;;;;;4193825;28;20231;-75
2022/05/20 05:57:59;;;;;;;3.40;2.60;;;23.80;99.90;;;;;;4190980;28;20231;-75
2022/05/20 06:00:04;;;;;;;4.60;2.55;;;23.80;99.90;;;;;;4192913;28;20227;-74
2022/05/20 06:02:08;;;;;;;2.63;2.42;;;23.80;99.90;;;;;;4193779;28;20239;-74
2022/05/20 06:04:10;;;;;;;2.97;2.47;;;23.80;99.90;;;;;;4193728;28;20227;-74
2022/05/20 06:06:13;;;;;;;3.03;2.22;;;23.80;99.90;;;;;;4193118;28;20276;-74
2022/05/20 06:08:16;;;;;;;4.28;2.67;;;23.80;99.90;;;;;;4192574;28;20242;-75
2022/05/20 06:10:18;;;;;;;3.15;2.85;;;23.80;99.90;;;;;;4192184;28;20764;-75
2022/05/20 06:12:21;;;;;;;2.63;2.42;;;23.80;99.90;;;;;;4193413;28;20219;-75
2022/05/20 06:14:24;;;;;;;3.58;2.70;;;23.80;99.90;;;;;;4193330;28;20280;-75
2022/05/20 06:16:28;;;;;;;5.20;2.58;;;23.80;99.90;;;;;;4192828;28;20219;-74
2022/05/20 06:18:30;;;;;;;3.95;2.60;;;23.90;99.90;;;;;;4193193;28;20679;-75
2022/05/20 06:20:33;;;;;;;3.88;3.33;;;23.80;99.90;;;;;;4192694;28;20219;-75
2022/05/20 06:22:35;;;;;;;3.65;2.75;;;23.90;99.90;;;;;;4193238;28;20243;-74
2022/05/20 06:24:38;;;;;;;3.30;2.92;;;23.90;99.90;;;;;;4192389;28;20222;-74
2022/05/20 06:26:41;;;;;;;3.25;2.80;;;23.90;99.90;;;;;;4192524;28;20223;-75
2022/05/20 06:28:43;;;;;;;4.93;3.15;;;23.90;99.90;;;;;;4192940;28;20744;-75
2022/05/20 06:30:46;;;;;;;3.92;3.13;;;23.90;99.90;;;;;;4192878;28;20227;-75
2022/05/20 06:32:50;;;;;;;4.72;3.70;;;23.90;99.90;;;;;;4193061;28;20208;-75
2022/05/20 06:41:51;;;;;;;4.03;3.20;;;24.00;99.90;;;;;;4193775;28;20215;-74
2022/05/20 06:43:53;;;;;;;4.35;3.20;;;24.00;99.90;;;;;;4192413;28;20292;-75
2022/05/20 06:45:58;;;;;;;3.40;3.00;;;24.00;99.90;;;;;;4193562;28;20226;-75
2022/05/20 06:48:01;;;;;;;5.65;4.13;;;24.00;99.90;;;;;;4188183;28;20826;-74
2022/05/20 06:50:05;;;;;;;17.88;13.88;;;24.00;99.90;;;;;;4190184;28;20207;-74
2022/05/20 06:52:07;;;;;;;25.08;20.27;;;23.70;99.90;;;;;;4188027;28;20223;-74
2022/05/20 06:54:12;;;;;;;27.65;23.00;;;23.20;99.90;;;;;;4189447;28;20889;-74
2022/05/20 06:56:16;;;;;;;24.92;22.23;;;22.80;99.90;;;;;;4191951;28;20219;-74
2022/05/20 06:58:18;;;;;;;37.20;25.55;;;22.90;99.90;;;;;;4191810;28;20227;-74
2022/05/20 07:00:21;;;;;;;28.45;24.60;;;22.90;99.90;;;;;;4192130;28;20328;-73
2022/05/20 07:02:23;;;;;;;28.17;24.77;;;22.90;99.90;;;;;;4192409;28;20294;-74
2022/05/20 07:04:27;;;;;;;31.88;25.48;;;22.90;99.90;;;;;;4191754;28;20227;-74
2022/05/20 07:06:30;;;;;;;30.75;25.08;;;22.80;99.90;;;;;;4189463;28;20219;-74
2022/05/20 07:08:33;;;;;;;31.58;25.80;;;22.80;99.90;;;;;;4191549;28;20301;-74
2022/05/20 07:10:35;;;;;;;31.20;25.02;;;22.80;99.90;;;;;;4191473;28;20538;-75
2022/05/20 07:12:38;;;;;;;29.25;26.13;;;22.80;99.90;;;;;;4192511;28;20315;-80
2022/05/20 07:14:40;;;;;;;29.25;25.95;;;22.70;99.90;;;;;;4195036;28;20272;-80
2022/05/20 07:16:43;;;;;;;30.13;26.30;;;22.70;99.90;;;;;;4193926;28;20219;-81
2022/05/20 07:18:46;;;;;;;29.25;25.48;;;22.60;99.90;;;;;;4194707;28;20215;-80
2022/05/20 07:20:49;;;;;;;34.05;26.83;;;22.60;99.90;;;;;;4195476;28;20240;-80
2022/05/20 07:22:52;;;;;;;30.15;25.52;;;22.70;99.90;;;;;;4191601;28;21093;-80
2022/05/20 07:24:55;;;;;;;34.10;26.13;;;22.70;99.90;;;;;;4194615;28;20207;-80
2022/05/20 07:26:57;;;;;;;30.20;25.38;;;22.70;99.90;;;;;;4191551;28;20512;-80
2022/05/20 07:28:59;;;;;;;31.67;25.70;;;22.80;99.90;;;;;;4191256;28;20215;-80
2022/05/20 07:31:02;;;;;;;31.10;25.10;;;22.70;99.90;;;;;;4192437;28;20659;-80
2022/05/20 07:33:04;;;;;;;31.85;25.15;;;22.80;99.90;;;;;;4188976;28;20260;-80
2022/05/20 07:35:09;;;;;;;29.55;25.30;;;22.80;99.90;;;;;;4183177;28;21665;-79
2022/05/20 07:37:12;;;;;;;31.67;24.63;;;22.80;99.90;;;;;;4192541;28;20214;-78
2022/05/20 07:39:15;;;;;;;31.05;26.40;;;22.60;99.90;;;;;;4191521;28;20215;-79
2022/05/20 07:41:19;;;;;;;29.17;25.13;;;22.60;99.90;;;;;;4186338;28;20223;-82
2022/05/20 07:43:22;;;;;;;29.30;24.58;;;22.50;99.90;;;;;;4189747;28;20235;-82
2022/05/20 07:45:24;;;;;;;30.55;25.40;;;22.50;99.90;;;;;;4192342;28;20226;-81
2022/05/20 07:47:27;;;;;;;30.85;26.05;;;22.50;99.90;;;;;;4190674;28;20218;-81
2022/05/20 07:49:29;;;;;;;37.58;24.90;;;22.40;99.90;;;;;;4192621;28;20264;-80
2022/05/20 07:51:33;;;;;;;28.83;24.38;;;22.40;99.90;;;;;;4184463;28;20215;-79
2022/05/20 07:53:40;;;;;;;29.70;25.60;;;22.50;99.90;;;;;;4187014;28;20208;-80
2022/05/20 07:55:46;;;;;;;31.90;25.95;;;22.50;99.90;;;;;;4190116;28;20223;-81
2022/05/20 07:57:48;;;;;;;29.30;25.80;;;22.50;99.90;;;;;;4191377;28;20215;-79
2022/05/20 07:59:53;;;;;;;28.52;25.13;;;22.50;99.90;;;;;;4192690;28;20223;-81
2022/05/20 08:01:57;;;;;;;32.33;26.77;;;22.40;99.90;;;;;;4189580;28;20215;-79
2022/05/20 08:06:24;;;;;;;31.23;26.10;;;22.60;99.90;;;;;;4190710;28;20203;-79
2022/05/20 08:08:26;;;;;;;30.90;26.92;;;22.50;99.90;;;;;;4189486;28;20711;-79
2022/05/20 08:10:34;;;;;;;33.15;26.73;;;22.50;99.90;;;;;;4179632;28;20245;-79
2022/05/20 08:12:36;;;;;;;30.58;26.70;;;22.50;99.90;;;;;;4190037;28;20245;-79
2022/05/20 08:14:39;;;;;;;34.13;27.10;;;22.50;99.90;;;;;;4191440;28;20309;-80
2022/05/20 08:16:41;;;;;;;32.75;26.92;;;22.60;99.90;;;;;;4189949;28;20219;-79
2022/05/20 08:18:43;;;;;;;29.05;25.88;;;22.60;99.90;;;;;;4191030;28;20252;-78
2022/05/20 08:20:46;;;;;;;29.42;26.00;;;22.70;99.90;;;;;;4190581;28;20211;-78
2022/05/20 08:22:48;;;;;;;28.90;25.35;;;22.70;99.90;;;;;;4188289;28;20288;-79
2022/05/20 08:24:53;;;;;;;30.02;24.02;;;22.80;99.90;;;;;;4191425;28;20239;-80
2022/05/20 08:26:57;;;;;;;31.00;25.85;;;22.90;99.90;;;;;;4191141;28;20219;-78
2022/05/20 08:28:59;;;;;;;29.23;24.92;;;22.90;99.90;;;;;;4190575;28;20272;-80
2022/05/20 08:31:02;;;;;;;28.35;24.83;;;22.80;99.90;;;;;;4189987;28;20207;-79
2022/05/20 08:33:04;;;;;;;33.05;26.75;;;22.80;99.90;;;;;;4190582;28;20219;-80
2022/05/20 08:35:07;;;;;;;31.65;26.38;;;22.80;99.90;;;;;;4191336;28;20596;-80
2022/05/20 08:37:10;;;;;;;32.90;27.17;;;22.90;99.90;;;;;;4190895;28;20231;-80
2022/05/20 08:39:14;;;;;;;30.73;25.27;;;22.90;99.90;;;;;;4191917;28;20284;-78
2022/05/20 08:41:20;;;;;;;35.75;27.58;;;22.90;99.90;;;;;;4191120;28;20211;-78
2022/05/20 08:43:26;;;;;;;30.30;26.65;;;23.00;99.90;;;;;;4190511;28;20216;-78
2022/05/20 08:45:30;;;;;;;32.00;28.48;;;22.90;99.90;;;;;;4188059;28;20216;-78
2022/05/20 08:47:41;;;;;;;30.92;27.42;;;22.90;99.90;;;;;;4190820;28;20219;-78
2022/05/20 08:49:43;;;;;;;33.80;27.63;;;22.90;99.90;;;;;;4188914;28;20218;-78
2022/05/20 08:51:53;;;;;;;33.38;29.52;;;22.90;99.90;;;;;;4189268;28;20233;-80
2022/05/20 08:53:58;;;;;;;35.33;29.08;;;23.00;99.90;;;;;;4190219;28;20223;-81
2022/05/20 08:56:03;;;;;;;37.55;30.55;;;22.90;99.90;;;;;;4188189;28;20219;-77
2022/05/20 08:58:07;;;;;;;33.28;28.10;;;22.90;99.90;;;;;;4184313;28;20264;-80
2022/05/20 09:00:13;;;;;;;31.92;28.33;;;22.90;99.90;;;;;;4188164;28;20281;-84
2022/05/20 09:02:15;;;;;;;34.65;28.42;;;22.90;99.90;;;;;;4192412;28;20269;-82
2022/05/20 09:04:21;;;;;;;36.53;28.83;;;23.00;99.90;;;;;;4193172;28;20239;-81
2022/05/20 09:06:25;;;;;;;37.75;29.27;;;23.00;99.90;;;;;;4194031;28;20267;-80
2022/05/20 09:08:29;;;;;;;34.78;29.00;;;23.10;99.90;;;;;;4193663;28;20235;-79
2022/05/20 09:10:35;;;;;;;32.00;28.30;;;23.00;99.90;;;;;;4194332;28;20219;-80
2022/05/20 09:12:39;;;;;;;34.30;30.02;;;23.10;99.90;;;;;;4189794;28;20265;-81
2022/05/20 09:17:14;;;;;;;31.27;27.85;;;23.10;99.90;;;;;;4191262;28;20199;-82
2022/05/20 09:19:27;;;;;;;33.28;29.67;;;23.10;99.90;;;;;;4190786;28;20211;-81
2022/05/20 09:21:33;;;;;;;33.75;29.95;;;23.10;99.90;;;;;;4192927;28;20257;-79
2022/05/20 09:23:50;;;;;;;32.60;28.27;;;23.10;99.90;;;;;;4191364;28;20269;-79
2022/05/20 09:26:05;;;;;;;39.10;26.42;;;23.20;99.90;;;;;;4190000;28;20224;-79
2022/05/20 09:28:29;;;;;;;35.55;26.50;;;23.20;99.90;;;;;;4190240;28;20272;-83
2022/05/20 09:30:39;;;;;;;27.50;23.75;;;23.30;99.90;;;;;;4194336;28;20219;-80
2022/05/20 09:32:45;;;;;;;23.45;19.00;;;23.50;99.90;;;;;;4192365;28;20663;-83
2022/05/20 09:34:56;;;;;;;27.02;20.88;;;23.60;99.90;;;;;;4192805;28;20211;-78
2022/05/20 09:37:01;;;;;;;18.83;15.63;;;23.70;99.90;;;;;;4190679;28;20321;-78
2022/05/20 09:39:15;;;;;;;17.75;14.57;;;23.70;99.90;;;;;;4192549;28;20215;-79
2022/05/20 09:41:21;;;;;;;15.00;12.75;;;23.80;99.90;;;;;;4194595;28;20667;-79
2022/05/20 09:43:27;;;;;;;17.15;12.95;;;23.90;99.90;;;;;;4195142;28;20261;-78
2022/05/20 09:45:37;;;;;;;20.75;13.95;;;23.90;99.90;;;;;;4194687;28;20284;-78
2022/05/20 09:47:50;;;;;;;15.38;12.75;;;23.90;99.90;;;;;;4192675;28;20211;-78
2022/05/20 09:49:55;;;;;;;14.00;11.40;;;24.00;99.90;;;;;;4194484;28;20215;-79
2022/05/20 09:52:00;;;;;;;18.65;13.52;;;24.00;99.90;;;;;;4192930;28;20223;-80
2022/05/20 09:54:13;;;;;;;18.13;13.57;;;24.10;99.90;;;;;;4194013;28;20308;-81
2022/05/20 09:56:23;;;;;;;19.52;14.98;;;24.00;99.90;;;;;;4193728;28;21971;-81
2022/05/20 09:58:28;;;;;;;18.73;16.15;;;24.10;99.90;;;;;;4192755;28;20227;-77
2022/05/20 10:00:32;;;;;;;21.52;15.95;;;23.90;99.90;;;;;;4193765;28;20265;-82
2022/05/20 10:02:41;;;;;;;21.55;15.75;;;24.00;99.90;;;;;;4191874;28;20215;-79
2022/05/20 10:04:52;;;;;;;15.10;11.63;;;24.10;99.90;;;;;;4191306;28;20230;-79
2022/05/20 10:06:59;;;;;;;17.05;14.98;;;24.10;99.90;;;;;;4190228;28;20296;-80
2022/05/20 10:09:09;;;;;;;22.17;18.15;;;24.20;99.90;;;;;;4193681;28;20242;-81
2022/05/20 10:11:14;;;;;;;20.25;16.38;;;24.20;99.90;;;;;;4191597;28;20219;-81
2022/05/20 10:13:26;;;;;;;17.10;13.07;;;24.20;99.90;;;;;;4193164;28;20257;-82
2022/05/20 10:15:32;;;;;;;18.95;14.98;;;24.20;99.90;;;;;;4185947;28;20215;-84
2022/05/20 10:17:47;;;;;;;19.15;17.15;;;24.20;99.90;;;;;;4192042;28;20220;-82
2022/05/20 10:19:55;;;;;;;16.45;14.68;;;24.30;99.90;;;;;;4193183;28;20219;-82
2022/05/20 10:22:04;;;;;;;17.27;12.73;;;24.30;99.90;;;;;;4190963;28;20619;-82
2022/05/20 10:24:18;;;;;;;12.82;10.60;;;24.30;99.90;;;;;;4193407;28;20252;-82
2022/05/20 10:26:33;;;;;;;12.20;9.98;;;24.30;99.90;;;;;;4192637;28;20260;-78
2022/05/20 10:33:32;;;;;;;11.63;10.40;;;24.40;99.90;;;;;;4192048;28;20191;-79
2022/05/20 10:35:52;;;;;;;17.38;14.60;;;24.40;99.90;;;;;;4191189;28;20215;-79
2022/05/20 10:38:22;;;;;;;14.20;12.23;;;24.40;99.90;;;;;;4192673;28;20241;-78
2022/05/20 10:40:42;;;;;;;15.20;10.95;;;24.40;99.90;;;;;;4189922;28;20269;-78
2022/05/20 10:42:59;;;;;;;12.20;10.50;;;24.40;99.90;;;;;;4192190;28;20223;-79
2022/05/20 10:50:31;;;;;;;18.15;15.52;;;24.40;99.90;;;;;;4126053;28;20202;-79
2022/05/20 10:53:00;;;;;;;15.50;12.63;;;24.40;99.90;;;;;;4159840;28;20215;-80
2022/05/20 10:55:14;;;;;;;20.92;17.42;;;24.40;99.90;;;;;;4189302;28;21058;-84
2022/05/20 10:57:43;;;;;;;21.05;15.27;;;24.40;99.90;;;;;;4192458;28;20215;-83
2022/05/20 10:59:59;;;;;;;17.27;13.15;;;24.30;99.90;;;;;;4194286;28;20702;-81
2022/05/20 11:02:15;;;;;;;16.58;12.15;;;24.30;99.90;;;;;;4186741;28;20219;-84
2022/05/20 11:04:49;;;;;;;17.88;10.88;;;24.30;99.90;;;;;;4186327;28;20318;-80
2022/05/20 11:07:21;;;;;;;13.77;10.48;;;24.10;99.90;;;;;;4174831;28;20213;-80
2022/05/20 11:09:36;;;;;;;19.52;11.05;;;24.10;99.90;;;;;;4188368;28;20215;-78
2022/05/20 11:11:53;;;;;;;12.30;10.88;;;24.20;99.90;;;;;;4190251;28;20931;-82
2022/05/20 11:14:11;;;;;;;19.75;15.18;;;24.30;99.90;;;;;;4192774;28;20223;-78
2022/05/20 11:16:31;;;;;;;24.65;19.63;;;24.30;99.90;;;;;;4186815;28;20328;-79
2022/05/20 11:19:05;;;;;;;21.60;16.90;;;24.30;99.90;;;;;;4189888;28;20215;-77
2022/05/20 11:21:41;;;;;;;23.02;19.35;;;24.30;99.90;;;;;;4153664;28;20797;-79
2022/05/20 11:24:07;;;;;;;23.95;20.55;;;24.20;99.90;;;;;;4188291;28;20272;-82